Station Historical Data
Daily Summary for May 2, 2011 Units:  Both    English   Metric
« Previous Day
Next Day »
Daily Weekly Monthly Yearly Custom
  High: Low: Average:
Temperature: 80.9 °F /  27.2 °C 63.5 °F /  17.5 °C 71.8 °F /  22.1 °C
Dew Point: 69.0 °F /  20.6 °C 60.8 °F /  16 °C 65.3 °F /  18.5 °C
Humidity: 93% 60% 81%
Wind Speed: 18.0mph /  29km/h - 6.1mph /  9.8km/h
Wind Gust: 20.0mph /  32.2km/h - -
Wind- - SSE
Pressure: 30.06 in /  1017.8 hPa 29.93 in /  1013.4 hPa -
Precipitation: 0.00 in /  0 mm    
Historical Graphs
 
 
Tabular Data for May 2, 2011
Time Temperature Dew Point Pressure Wind Wind Speed Wind Gust Humidity Rainfall Rate (Hourly) Conditions
00:00 67.7 °F /  19.8 °C 62.7 °F /  17.1 °C 29.96in /  1014.4hPa SE 6.0mph /  9.7km/h 6.0mph /  9.7km/h 84% 0.00in /  0mm
00:01 67.7 °F /  19.8 °C 62.7 °F /  17.1 °C 29.96in /  1014.4hPa SE 4.0mph /  6.4km/h 6.0mph /  9.7km/h 84% 0.00in /  0mm
00:02 67.7 °F /  19.8 °C 62.7 °F /  17.1 °C 29.96in /  1014.4hPa SE 5.0mph /  8km/h 6.0mph /  9.7km/h 84% 0.00in /  0mm
00:03 67.7 °F /  19.8 °C 62.7 °F /  17.1 °C 29.96in /  1014.4hPa SE 3.0mph /  4.8km/h 7.0mph /  11.3km/h 84% 0.00in /  0mm
00:08 67.7 °F /  19.8 °C 62.7 °F /  17.1 °C 29.96in /  1014.4hPa SE 4.0mph /  6.4km/h 7.0mph /  11.3km/h 84% 0.00in /  0mm
00:13 67.9 °F /  19.9 °C 62.9 °F /  17.2 °C 29.96in /  1014.4hPa SE 7.0mph /  11.3km/h 8.0mph /  12.9km/h 84% 0.00in /  0mm
00:14 67.9 °F /  19.9 °C 62.9 °F /  17.2 °C 29.96in /  1014.4hPa SE 5.0mph /  8km/h 8.0mph /  12.9km/h 84% 0.00in /  0mm
00:18 68.0 °F /  20 °C 63.0 °F /  17.2 °C 29.96in /  1014.4hPa SE 4.0mph /  6.4km/h 9.0mph /  14.5km/h 84% 0.00in /  0mm
00:23 68.1 °F /  20.1 °C 62.8 °F /  17.1 °C 29.96in /  1014.4hPa SE 7.0mph /  11.3km/h 9.0mph /  14.5km/h 83% 0.00in /  0mm
00:28 68.2 °F /  20.1 °C 62.8 °F /  17.1 °C 29.96in /  1014.4hPa SE 6.0mph /  9.7km/h 9.0mph /  14.5km/h 83% 0.00in /  0mm
00:30 68.2 °F /  20.1 °C 62.8 °F /  17.1 °C 29.96in /  1014.4hPa SE 4.0mph /  6.4km/h 9.0mph /  14.5km/h 83% 0.00in /  0mm
00:31 68.2 °F /  20.1 °C 62.8 °F /  17.1 °C 29.96in /  1014.4hPa ESE 6.0mph /  9.7km/h 8.0mph /  12.9km/h 83% 0.00in /  0mm
00:35 68.2 °F /  20.1 °C 62.8 °F /  17.1 °C 29.97in /  1014.8hPa ESE 6.0mph /  9.7km/h 7.0mph /  11.3km/h 83% 0.00in /  0mm
00:36 68.3 °F /  20.2 °C 62.9 °F /  17.2 °C 29.97in /  1014.8hPa ESE 6.0mph /  9.7km/h 6.0mph /  9.7km/h 83% 0.00in /  0mm
00:41 68.3 °F /  20.2 °C 62.9 °F /  17.2 °C 29.97in /  1014.8hPa SE 6.0mph /  9.7km/h 7.0mph /  11.3km/h 83% 0.00in /  0mm
00:46 68.4 °F /  20.2 °C 63.0 °F /  17.2 °C 29.97in /  1014.8hPa SE 4.0mph /  6.4km/h 7.0mph /  11.3km/h 83% 0.00in /  0mm
00:51 68.4 °F /  20.2 °C 63.0 °F /  17.2 °C 29.97in /  1014.8hPa SE 3.0mph /  4.8km/h 7.0mph /  11.3km/h 83% 0.00in /  0mm
00:55 68.3 °F /  20.2 °C 62.9 °F /  17.2 °C 29.98in /  1015.1hPa ESE 4.0mph /  6.4km/h 6.0mph /  9.7km/h 83% 0.00in /  0mm
00:56 68.3 °F /  20.2 °C 62.9 °F /  17.2 °C 29.97in /  1014.8hPa SE 4.0mph /  6.4km/h 6.0mph /  9.7km/h 83% 0.00in /  0mm
01:00 68.3 °F /  20.2 °C 62.9 °F /  17.2 °C 29.97in /  1014.8hPa ESE 3.0mph /  4.8km/h 5.0mph /  8km/h 83% 0.00in /  0mm
01:02 68.3 °F /  20.2 °C 62.9 °F /  17.2 °C 29.97in /  1014.8hPa SE 4.0mph /  6.4km/h 5.0mph /  8km/h 83% 0.00in /  0mm
01:05 68.3 °F /  20.2 °C 62.9 °F /  17.2 °C 29.97in /  1014.8hPa SE 7.0mph /  11.3km/h 8.0mph /  12.9km/h 83% 0.00in /  0mm
01:07 68.3 °F /  20.2 °C 62.9 °F /  17.2 °C 29.97in /  1014.8hPa SE 8.0mph /  12.9km/h 9.0mph /  14.5km/h 83% 0.00in /  0mm
01:12 68.3 °F /  20.2 °C 62.9 °F /  17.2 °C 29.97in /  1014.8hPa SE 7.0mph /  11.3km/h 9.0mph /  14.5km/h 83% 0.00in /  0mm
01:17 68.4 °F /  20.2 °C 63.0 °F /  17.2 °C 29.97in /  1014.8hPa SE 5.0mph /  8km/h 9.0mph /  14.5km/h 83% 0.00in /  0mm
01:18 68.4 °F /  20.2 °C 63.0 °F /  17.2 °C 29.97in /  1014.8hPa SE 4.0mph /  6.4km/h 9.0mph /  14.5km/h 83% 0.00in /  0mm
01:22 68.4 °F /  20.2 °C 63.0 °F /  17.2 °C 29.97in /  1014.8hPa SE 5.0mph /  8km/h 8.0mph /  12.9km/h 83% 0.00in /  0mm
01:27 68.3 °F /  20.2 °C 62.9 °F /  17.2 °C 29.97in /  1014.8hPa ESE 5.0mph /  8km/h 7.0mph /  11.3km/h 83% 0.00in /  0mm
01:28 68.3 °F /  20.2 °C 62.9 °F /  17.2 °C 29.97in /  1014.8hPa ESE 3.0mph /  4.8km/h 7.0mph /  11.3km/h 83% 0.00in /  0mm
01:32 68.2 °F /  20.1 °C 62.8 °F /  17.1 °C 29.97in /  1014.8hPa SE 8.0mph /  12.9km/h 8.0mph /  12.9km/h 83% 0.00in /  0mm
01:33 68.2 °F /  20.1 °C 62.8 °F /  17.1 °C 29.97in /  1014.8hPa ESE 6.0mph /  9.7km/h 8.0mph /  12.9km/h 83% 0.00in /  0mm
01:38 68.2 °F /  20.1 °C 62.8 °F /  17.1 °C 29.97in /  1014.8hPa SE 4.0mph /  6.4km/h 6.0mph /  9.7km/h 83% 0.00in /  0mm
01:43 68.1 °F /  20.1 °C 62.8 °F /  17.1 °C 29.97in /  1014.8hPa SE 6.0mph /  9.7km/h 9.0mph /  14.5km/h 83% 0.00in /  0mm
01:48 68.1 °F /  20.1 °C 62.8 °F /  17.1 °C 29.97in /  1014.8hPa SE 5.0mph /  8km/h 7.0mph /  11.3km/h 83% 0.00in /  0mm
01:53 68.2 °F /  20.1 °C 62.8 °F /  17.1 °C 29.98in /  1015.1hPa SE 5.0mph /  8km/h 9.0mph /  14.5km/h 83% 0.00in /  0mm
01:55 68.2 °F /  20.1 °C 62.8 °F /  17.1 °C 29.98in /  1015.1hPa ESE 6.0mph /  9.7km/h 7.0mph /  11.3km/h 83% 0.00in /  0mm
02:00 68.2 °F /  20.1 °C 62.8 °F /  17.1 °C 29.98in /  1015.1hPa SE 6.0mph /  9.7km/h 8.0mph /  12.9km/h 83% 0.00in /  0mm
02:05 68.3 °F /  20.2 °C 62.9 °F /  17.2 °C 29.98in /  1015.1hPa SE 6.0mph /  9.7km/h 7.0mph /  11.3km/h 83% 0.00in /  0mm
02:10 68.1 °F /  20.1 °C 62.8 °F /  17.1 °C 29.98in /  1015.1hPa SE 7.0mph /  11.3km/h 8.0mph /  12.9km/h 83% 0.00in /  0mm
02:15 68.2 °F /  20.1 °C 62.8 °F /  17.1 °C 29.98in /  1015.1hPa ESE 4.0mph /  6.4km/h 5.0mph /  8km/h 83% 0.00in /  0mm
02:20 68.1 °F /  20.1 °C 62.8 °F /  17.1 °C 29.98in /  1015.1hPa SE 5.0mph /  8km/h 6.0mph /  9.7km/h 83% 0.00in /  0mm
02:25 68.0 °F /  20 °C 62.7 °F /  17.1 °C 29.98in /  1015.1hPa SE 3.0mph /  4.8km/h 6.0mph /  9.7km/h 83% 0.00in /  0mm
02:31 67.8 °F /  19.9 °C 62.8 °F /  17.1 °C 29.98in /  1015.1hPa SE 4.0mph /  6.4km/h 5.0mph /  8km/h 84% 0.00in /  0mm
02:33 67.8 °F /  19.9 °C 62.8 °F /  17.1 °C 29.98in /  1015.1hPa SE 5.0mph /  8km/h 5.0mph /  8km/h 84% 0.00in /  0mm
02:34 67.7 °F /  19.8 °C 62.7 °F /  17.1 °C 29.98in /  1015.1hPa ESE 4.0mph /  6.4km/h 5.0mph /  8km/h 84% 0.00in /  0mm
02:38 67.7 °F /  19.8 °C 62.7 °F /  17.1 °C 29.98in /  1015.1hPa SE 4.0mph /  6.4km/h 5.0mph /  8km/h 84% 0.00in /  0mm
02:43 67.6 °F /  19.8 °C 62.6 °F /  17 °C 29.98in /  1015.1hPa SE 4.0mph /  6.4km/h 6.0mph /  9.7km/h 84% 0.00in /  0mm
02:48 67.5 °F /  19.7 °C 62.5 °F /  16.9 °C 29.98in /  1015.1hPa SE 4.0mph /  6.4km/h 5.0mph /  8km/h 84% 0.00in /  0mm
02:53 67.3 °F /  19.6 °C 62.3 °F /  16.8 °C 29.99in /  1015.5hPa SE 3.0mph /  4.8km/h 5.0mph /  8km/h 84% 0.00in /  0mm
02:54 67.3 °F /  19.6 °C 62.6 °F /  17 °C 29.99in /  1015.5hPa SE 6.0mph /  9.7km/h 6.0mph /  9.7km/h 85% 0.00in /  0mm
02:58 67.2 °F /  19.6 °C 62.5 °F /  16.9 °C 29.99in /  1015.5hPa SE 4.0mph /  6.4km/h 7.0mph /  11.3km/h 85% 0.00in /  0mm
02:59 67.1 °F /  19.5 °C 62.5 °F /  16.9 °C 29.99in /  1015.5hPa SE 3.0mph /  4.8km/h 7.0mph /  11.3km/h 85% 0.00in /  0mm
03:04 67.0 °F /  19.4 °C 62.3 °F /  16.8 °C 29.99in /  1015.5hPa SE 3.0mph /  4.8km/h 6.0mph /  9.7km/h 85% 0.00in /  0mm
03:09 67.0 °F /  19.4 °C 62.3 °F /  16.8 °C 29.99in /  1015.5hPa ESE 4.0mph /  6.4km/h 6.0mph /  9.7km/h 85% 0.00in /  0mm
03:14 66.9 °F /  19.4 °C 62.2 °F /  16.8 °C 29.99in /  1015.5hPa SE 4.0mph /  6.4km/h 5.0mph /  8km/h 85% 0.00in /  0mm
03:15 67.0 °F /  19.4 °C 62.3 °F /  16.8 °C 29.99in /  1015.5hPa SE 5.0mph /  8km/h 6.0mph /  9.7km/h 85% 0.00in /  0mm
03:20 67.0 °F /  19.4 °C 62.3 °F /  16.8 °C 29.99in /  1015.5hPa ESE 5.0mph /  8km/h 7.0mph /  11.3km/h 85% 0.00in /  0mm
03:25 67.1 °F /  19.5 °C 62.5 °F /  16.9 °C 29.99in /  1015.5hPa SE 5.0mph /  8km/h 7.0mph /  11.3km/h 85% 0.00in /  0mm
03:26 67.0 °F /  19.4 °C 62.3 °F /  16.8 °C 29.99in /  1015.5hPa SE 7.0mph /  11.3km/h 8.0mph /  12.9km/h 85% 0.00in /  0mm
03:31 67.1 °F /  19.5 °C 62.5 °F /  16.9 °C 29.99in /  1015.5hPa SE 6.0mph /  9.7km/h 8.0mph /  12.9km/h 85% 0.00in /  0mm
03:34 67.1 °F /  19.5 °C 62.5 °F /  16.9 °C 29.99in /  1015.5hPa ESE 6.0mph /  9.7km/h 9.0mph /  14.5km/h 85% 0.00in /  0mm
03:36 67.1 °F /  19.5 °C 62.5 °F /  16.9 °C 29.99in /  1015.5hPa SSE 4.0mph /  6.4km/h 8.0mph /  12.9km/h 85% 0.00in /  0mm
03:39 67.0 °F /  19.4 °C 62.3 °F /  16.8 °C 29.99in /  1015.5hPa SE 5.0mph /  8km/h 8.0mph /  12.9km/h 85% 0.00in /  0mm
03:44 66.8 °F /  19.3 °C 62.5 °F /  16.9 °C 30.00in /  1015.8hPa SE 4.0mph /  6.4km/h 5.0mph /  8km/h 86% 0.00in /  0mm
03:49 66.7 °F /  19.3 °C 62.4 °F /  16.9 °C 30.00in /  1015.8hPa SE 5.0mph /  8km/h 6.0mph /  9.7km/h 86% 0.00in /  0mm
03:54 66.8 °F /  19.3 °C 62.5 °F /  16.9 °C 30.00in /  1015.8hPa ESE 4.0mph /  6.4km/h 5.0mph /  8km/h 86% 0.00in /  0mm
03:55 66.8 °F /  19.3 °C 62.5 °F /  16.9 °C 30.00in /  1015.8hPa SE 4.0mph /  6.4km/h 6.0mph /  9.7km/h 86% 0.00in /  0mm
03:56 66.8 °F /  19.3 °C 62.5 °F /  16.9 °C 30.00in /  1015.8hPa SE 4.0mph /  6.4km/h 6.0mph /  9.7km/h 86% 0.00in /  0mm
03:59 66.8 °F /  19.3 °C 62.5 °F /  16.9 °C 30.00in /  1015.8hPa SSE 3.0mph /  4.8km/h 4.0mph /  6.4km/h 86% 0.00in /  0mm
04:01 66.8 °F /  19.3 °C 62.5 °F /  16.9 °C 30.00in /  1015.8hPa SE 4.0mph /  6.4km/h 6.0mph /  9.7km/h 86% 0.00in /  0mm
04:07 66.9 °F /  19.4 °C 62.6 °F /  17 °C 30.00in /  1015.8hPa ESE 4.0mph /  6.4km/h 5.0mph /  8km/h 86% 0.00in /  0mm
04:12 66.8 °F /  19.3 °C 62.5 °F /  16.9 °C 30.01in /  1016.1hPa SSE 5.0mph /  8km/h 5.0mph /  8km/h 86% 0.00in /  0mm
04:17 66.7 °F /  19.3 °C 62.4 °F /  16.9 °C 30.01in /  1016.1hPa SE 3.0mph /  4.8km/h 4.0mph /  6.4km/h 86% 0.00in /  0mm
04:22 66.5 °F /  19.2 °C 62.5 °F /  16.9 °C 30.01in /  1016.1hPa SSE 4.0mph /  6.4km/h 4.0mph /  6.4km/h 87% 0.00in /  0mm
04:27 66.3 °F /  19.1 °C 62.3 °F /  16.8 °C 30.01in /  1016.1hPa South 2.0mph /  3.2km/h 3.0mph /  4.8km/h 87% 0.00in /  0mm
04:28 66.2 °F /  19 °C 62.2 °F /  16.8 °C 30.02in /  1016.5hPa SE 2.0mph /  3.2km/h 3.0mph /  4.8km/h 87% 0.00in /  0mm
04:29 66.2 °F /  19 °C 62.2 °F /  16.8 °C 30.02in /  1016.5hPa SSE 3.0mph /  4.8km/h 3.0mph /  4.8km/h 87% 0.00in /  0mm
04:32 66.0 °F /  18.9 °C 62.3 °F /  16.8 °C 30.02in /  1016.5hPa SSE 2.0mph /  3.2km/h 3.0mph /  4.8km/h 88% 0.00in /  0mm
04:34 65.9 °F /  18.8 °C 62.2 °F /  16.8 °C 30.02in /  1016.5hPa SE 3.0mph /  4.8km/h 3.0mph /  4.8km/h 88% 0.00in /  0mm
04:35 65.9 °F /  18.8 °C 62.2 °F /  16.8 °C 30.02in /  1016.5hPa SE 2.0mph /  3.2km/h 3.0mph /  4.8km/h 88% 0.00in /  0mm
04:39 65.9 °F /  18.8 °C 62.2 °F /  16.8 °C 30.02in /  1016.5hPa SE 4.0mph /  6.4km/h 4.0mph /  6.4km/h 88% 0.00in /  0mm
04:41 65.8 °F /  18.8 °C 62.2 °F /  16.8 °C 30.02in /  1016.5hPa SE 2.0mph /  3.2km/h 4.0mph /  6.4km/h 88% 0.00in /  0mm
04:45 65.8 °F /  18.8 °C 62.2 °F /  16.8 °C 30.02in /  1016.5hPa SE 2.0mph /  3.2km/h 4.0mph /  6.4km/h 88% 0.00in /  0mm
04:47 65.8 °F /  18.8 °C 62.2 °F /  16.8 °C 30.02in /  1016.5hPa SE 3.0mph /  4.8km/h 4.0mph /  6.4km/h 88% 0.00in /  0mm
04:50 65.7 °F /  18.7 °C 62.4 °F /  16.9 °C 30.02in /  1016.5hPa South 2.0mph /  3.2km/h 3.0mph /  4.8km/h 89% 0.00in /  0mm
04:53 65.6 °F /  18.7 °C 62.3 °F /  16.8 °C 30.02in /  1016.5hPa SE 2.0mph /  3.2km/h 3.0mph /  4.8km/h 89% 0.00in /  0mm
04:55 65.5 °F /  18.6 °C 62.2 °F /  16.8 °C 30.02in /  1016.5hPa SSE 3.0mph /  4.8km/h 3.0mph /  4.8km/h 89% 0.00in /  0mm
04:57 65.4 °F /  18.6 °C 62.1 °F /  16.7 °C 30.02in /  1016.5hPa SSE 3.0mph /  4.8km/h 4.0mph /  6.4km/h 89% 0.00in /  0mm
04:59 65.4 °F /  18.6 °C 62.1 °F /  16.7 °C 30.02in /  1016.5hPa SE 2.0mph /  3.2km/h 4.0mph /  6.4km/h 89% 0.00in /  0mm
05:02 65.5 °F /  18.6 °C 62.5 °F /  16.9 °C 30.02in /  1016.5hPa SSE 6.0mph /  9.7km/h 6.0mph /  9.7km/h 90% 0.00in /  0mm
05:07 65.5 °F /  18.6 °C 62.5 °F /  16.9 °C 30.02in /  1016.5hPa SE 4.0mph /  6.4km/h 6.0mph /  9.7km/h 90% 0.00in /  0mm
05:12 65.6 °F /  18.7 °C 62.6 °F /  17 °C 30.02in /  1016.5hPa SSE 7.0mph /  11.3km/h 7.0mph /  11.3km/h 90% 0.00in /  0mm
05:17 65.5 °F /  18.6 °C 62.5 °F /  16.9 °C 30.02in /  1016.5hPa SSE 4.0mph /  6.4km/h 6.0mph /  9.7km/h 90% 0.00in /  0mm
05:23 65.4 °F /  18.6 °C 62.4 °F /  16.9 °C 30.02in /  1016.5hPa SW 2.0mph /  3.2km/h 6.0mph /  9.7km/h 90% 0.00in /  0mm
05:28 65.5 °F /  18.6 °C 62.8 °F /  17.1 °C 30.02in /  1016.5hPa SSE 2.0mph /  3.2km/h 5.0mph /  8km/h 91% 0.00in /  0mm
05:33 65.5 °F /  18.6 °C 62.8 °F /  17.1 °C 30.02in /  1016.5hPa South 2.0mph /  3.2km/h 5.0mph /  8km/h 91% 0.00in /  0mm
05:34 65.5 °F /  18.6 °C 62.8 °F /  17.1 °C 30.02in /  1016.5hPa SSE 3.0mph /  4.8km/h 5.0mph /  8km/h 91% 0.00in /  0mm
05:35 65.4 °F /  18.6 °C 62.7 °F /  17.1 °C 30.02in /  1016.5hPa SSE 3.0mph /  4.8km/h 5.0mph /  8km/h 91% 0.00in /  0mm
05:37 65.4 °F /  18.6 °C 62.7 °F /  17.1 °C 30.02in /  1016.5hPa SSW 4.0mph /  6.4km/h 5.0mph /  8km/h 91% 0.00in /  0mm
05:39 65.5 °F /  18.6 °C 62.8 °F /  17.1 °C 30.02in /  1016.5hPa South 4.0mph /  6.4km/h 5.0mph /  8km/h 91% 0.00in /  0mm
05:44 65.4 °F /  18.6 °C 62.7 °F /  17.1 °C 30.02in /  1016.5hPa South 3.0mph /  4.8km/h 5.0mph /  8km/h 91% 0.00in /  0mm
05:49 65.4 °F /  18.6 °C 63.0 °F /  17.2 °C 30.02in /  1016.5hPa SSE 4.0mph /  6.4km/h 7.0mph /  11.3km/h 92% 0.00in /  0mm
05:54 65.4 °F /  18.6 °C 63.0 °F /  17.2 °C 30.02in /  1016.5hPa South 5.0mph /  8km/h 8.0mph /  12.9km/h 92% 0.00in /  0mm
05:55 65.4 °F /  18.6 °C 63.0 °F /  17.2 °C 30.02in /  1016.5hPa SE 5.0mph /  8km/h 8.0mph /  12.9km/h 92% 0.00in /  0mm
06:00 65.5 °F /  18.6 °C 63.1 °F /  17.3 °C 30.02in /  1016.5hPa SE 4.0mph /  6.4km/h 7.0mph /  11.3km/h 92% 0.00in /  0mm
06:05 65.6 °F /  18.7 °C 63.2 °F /  17.3 °C 30.02in /  1016.5hPa ESE 9.0mph /  14.5km/h 9.0mph /  14.5km/h 92% 0.00in /  0mm
06:10 65.8 °F /  18.8 °C 63.4 °F /  17.4 °C 30.01in /  1016.1hPa SSE 6.0mph /  9.7km/h 12.0mph /  19.3km/h 92% 0.00in /  0mm
06:15 66.0 °F /  18.9 °C 63.6 °F /  17.6 °C 30.01in /  1016.1hPa SE 9.0mph /  14.5km/h 10.0mph /  16.1km/h 92% 0.00in /  0mm
06:20 65.9 °F /  18.8 °C 63.5 °F /  17.5 °C 30.02in /  1016.5hPa SE 8.0mph /  12.9km/h 8.0mph /  12.9km/h 92% 0.00in /  0mm
06:25 65.9 °F /  18.8 °C 63.5 °F /  17.5 °C 30.02in /  1016.5hPa South 8.0mph /  12.9km/h 9.0mph /  14.5km/h 92% 0.00in /  0mm
06:30 65.9 °F /  18.8 °C 63.5 °F /  17.5 °C 30.02in /  1016.5hPa SSE 3.0mph /  4.8km/h 9.0mph /  14.5km/h 92% 0.00in /  0mm
06:32 65.9 °F /  18.8 °C 63.5 °F /  17.5 °C 30.02in /  1016.5hPa South 4.0mph /  6.4km/h 6.0mph /  9.7km/h 92% 0.00in /  0mm
06:36 65.9 °F /  18.8 °C 63.5 °F /  17.5 °C 30.03in /  1016.8hPa SE 3.0mph /  4.8km/h 8.0mph /  12.9km/h 92% 0.00in /  0mm
06:41 65.9 °F /  18.8 °C 63.5 °F /  17.5 °C 30.03in /  1016.8hPa SW 2.0mph /  3.2km/h 5.0mph /  8km/h 92% 0.00in /  0mm
06:46 66.0 °F /  18.9 °C 63.9 °F /  17.7 °C 30.04in /  1017.2hPa SSW 2.0mph /  3.2km/h 5.0mph /  8km/h 93% 0.00in /  0mm
06:52 66.1 °F /  18.9 °C 63.7 °F /  17.6 °C 30.04in /  1017.2hPa SW 2.0mph /  3.2km/h 4.0mph /  6.4km/h 92% 0.00in /  0mm
06:57 66.1 °F /  18.9 °C 64.0 °F /  17.8 °C 30.04in /  1017.2hPa SSE 3.0mph /  4.8km/h 5.0mph /  8km/h 93% 0.00in /  0mm
06:59 66.2 °F /  19 °C 64.1 °F /  17.8 °C 30.04in /  1017.2hPa South 4.0mph /  6.4km/h 5.0mph /  8km/h 93% 0.00in /  0mm
07:04 66.2 °F /  19 °C 64.1 °F /  17.8 °C 30.04in /  1017.2hPa SSE 4.0mph /  6.4km/h 7.0mph /  11.3km/h 93% 0.00in /  0mm
07:09 66.3 °F /  19.1 °C 64.2 °F /  17.9 °C 30.04in /  1017.2hPa SE 6.0mph /  9.7km/h 7.0mph /  11.3km/h 93% 0.00in /  0mm
07:14 66.4 °F /  19.1 °C 64.3 °F /  17.9 °C 30.04in /  1017.2hPa SSE 6.0mph /  9.7km/h 8.0mph /  12.9km/h 93% 0.00in /  0mm
07:19 66.4 °F /  19.1 °C 64.3 °F /  17.9 °C 30.05in /  1017.5hPa SE 5.0mph /  8km/h 9.0mph /  14.5km/h 93% 0.00in /  0mm
07:24 66.4 °F /  19.1 °C 64.3 °F /  17.9 °C 30.05in /  1017.5hPa SE 5.0mph /  8km/h 8.0mph /  12.9km/h 93% 0.00in /  0mm
07:29 66.4 °F /  19.1 °C 64.3 °F /  17.9 °C 30.05in /  1017.5hPa SE 8.0mph /  12.9km/h 9.0mph /  14.5km/h 93% 0.00in /  0mm
07:30 66.5 °F /  19.2 °C 64.4 °F /  18 °C 30.05in /  1017.5hPa SSE 7.0mph /  11.3km/h 10.0mph /  16.1km/h 93% 0.00in /  0mm
07:34 66.5 °F /  19.2 °C 64.4 °F /  18 °C 30.05in /  1017.5hPa ESE 8.0mph /  12.9km/h 11.0mph /  17.7km/h 93% 0.00in /  0mm
07:35 66.5 °F /  19.2 °C 64.4 °F /  18 °C 30.05in /  1017.5hPa SSE 7.0mph /  11.3km/h 11.0mph /  17.7km/h 93% 0.00in /  0mm
07:36 66.5 °F /  19.2 °C 64.4 °F /  18 °C 30.05in /  1017.5hPa SE 5.0mph /  8km/h 8.0mph /  12.9km/h 93% 0.00in /  0mm
07:39 66.5 °F /  19.2 °C 64.4 °F /  18 °C 30.05in /  1017.5hPa SE 7.0mph /  11.3km/h 9.0mph /  14.5km/h 93% 0.00in /  0mm
07:40 66.5 °F /  19.2 °C 64.4 °F /  18 °C 30.05in /  1017.5hPa SSW 4.0mph /  6.4km/h 9.0mph /  14.5km/h 93% 0.00in /  0mm
07:45 66.6 °F /  19.2 °C 64.5 °F /  18.1 °C 30.05in /  1017.5hPa SE 2.0mph /  3.2km/h 9.0mph /  14.5km/h 93% 0.00in /  0mm
07:47 66.6 °F /  19.2 °C 64.5 °F /  18.1 °C 30.05in /  1017.5hPa SSE 4.0mph /  6.4km/h 7.0mph /  11.3km/h 93% 0.00in /  0mm
07:52 66.6 °F /  19.2 °C 64.5 °F /  18.1 °C 30.06in /  1017.8hPa SSE 7.0mph /  11.3km/h 7.0mph /  11.3km/h 93% 0.00in /  0mm
07:53 66.6 °F /  19.2 °C 64.5 °F /  18.1 °C 30.06in /  1017.8hPa SSE 6.0mph /  9.7km/h 8.0mph /  12.9km/h 93% 0.00in /  0mm
07:58 66.8 °F /  19.3 °C 64.7 °F /  18.2 °C 30.06in /  1017.8hPa SE 5.0mph /  8km/h 7.0mph /  11.3km/h 93% 0.00in /  0mm
08:03 66.9 °F /  19.4 °C 64.8 °F /  18.2 °C 30.06in /  1017.8hPa SE 4.0mph /  6.4km/h 6.0mph /  9.7km/h 93% 0.00in /  0mm
08:06 66.9 °F /  19.4 °C 64.8 °F /  18.2 °C 30.06in /  1017.8hPa SSE 6.0mph /  9.7km/h 7.0mph /  11.3km/h 93% 0.00in /  0mm
08:11 67.0 °F /  19.4 °C 64.9 °F /  18.3 °C 30.05in /  1017.5hPa SSE 6.0mph /  9.7km/h 7.0mph /  11.3km/h 93% 0.00in /  0mm
08:16 67.1 °F /  19.5 °C 65.0 °F /  18.3 °C 30.05in /  1017.5hPa SSE 4.0mph /  6.4km/h 10.0mph /  16.1km/h 93% 0.00in /  0mm
08:22 67.1 °F /  19.5 °C 65.0 °F /  18.3 °C 30.06in /  1017.8hPa SE 7.0mph /  11.3km/h 8.0mph /  12.9km/h 93% 0.00in /  0mm
08:27 67.2 °F /  19.6 °C 65.1 °F /  18.4 °C 30.06in /  1017.8hPa SSE 7.0mph /  11.3km/h 8.0mph /  12.9km/h 93% 0.00in /  0mm
08:28 67.3 °F /  19.6 °C 65.2 °F /  18.4 °C 30.05in /  1017.5hPa SSE 4.0mph /  6.4km/h 8.0mph /  12.9km/h 93% 0.00in /  0mm
08:33 67.4 °F /  19.7 °C 65.3 °F /  18.5 °C 30.06in /  1017.8hPa SE 6.0mph /  9.7km/h 6.0mph /  9.7km/h 93% 0.00in /  0mm
08:34 67.3 °F /  19.6 °C 65.2 °F /  18.4 °C 30.05in /  1017.5hPa SSE 5.0mph /  8km/h 7.0mph /  11.3km/h 93% 0.00in /  0mm
08:36 67.4 °F /  19.7 °C 65.3 °F /  18.5 °C 30.05in /  1017.5hPa SSE 7.0mph /  11.3km/h 10.0mph /  16.1km/h 93% 0.00in /  0mm
08:39 67.5 °F /  19.7 °C 65.4 °F /  18.6 °C 30.05in /  1017.5hPa SE 6.0mph /  9.7km/h 7.0mph /  11.3km/h 93% 0.00in /  0mm
08:45 67.7 °F /  19.8 °C 65.6 °F /  18.7 °C 30.05in /  1017.5hPa SSE 6.0mph /  9.7km/h 8.0mph /  12.9km/h 93% 0.00in /  0mm
08:50 67.8 °F /  19.9 °C 65.7 °F /  18.7 °C 30.06in /  1017.8hPa SE 2.0mph /  3.2km/h 8.0mph /  12.9km/h 93% 0.00in /  0mm
08:55 68.0 °F /  20 °C 65.9 °F /  18.8 °C 30.06in /  1017.8hPa SE 6.0mph /  9.7km/h 7.0mph /  11.3km/h 93% 0.00in /  0mm
08:56 68.0 °F /  20 °C 65.9 °F /  18.8 °C 30.06in /  1017.8hPa South 8.0mph /  12.9km/h 8.0mph /  12.9km/h 93% 0.00in /  0mm
08:57 68.1 °F /  20.1 °C 65.7 °F /  18.7 °C 30.06in /  1017.8hPa SSW 3.0mph /  4.8km/h 8.0mph /  12.9km/h 92% 0.00in /  0mm
09:00 68.1 °F /  20.1 °C 65.7 °F /  18.7 °C 30.06in /  1017.8hPa SSE 3.0mph /  4.8km/h 6.0mph /  9.7km/h 92% 0.00in /  0mm
09:03 68.2 °F /  20.1 °C 65.8 °F /  18.8 °C 30.06in /  1017.8hPa SSE 3.0mph /  4.8km/h 6.0mph /  9.7km/h 92% 0.00in /  0mm
09:06 68.4 °F /  20.2 °C 66.0 °F /  18.9 °C 30.06in /  1017.8hPa SSE 6.0mph /  9.7km/h 6.0mph /  9.7km/h 92% 0.00in /  0mm
09:08 68.5 °F /  20.3 °C 66.1 °F /  18.9 °C 30.06in /  1017.8hPa SSE 6.0mph /  9.7km/h 8.0mph /  12.9km/h 92% 0.00in /  0mm
09:11 68.6 °F /  20.3 °C 66.2 °F /  19 °C 30.05in /  1017.5hPa SSE 6.0mph /  9.7km/h 9.0mph /  14.5km/h 92% 0.00in /  0mm
09:13 68.7 °F /  20.4 °C 66.3 °F /  19.1 °C 30.05in /  1017.5hPa ESE 5.0mph /  8km/h 9.0mph /  14.5km/h 92% 0.00in /  0mm
09:16 69.2 °F /  20.7 °C 66.5 °F /  19.2 °C 30.06in /  1017.8hPa SSW 7.0mph /  11.3km/h 9.0mph /  14.5km/h 91% 0.00in /  0mm
09:22 69.7 °F /  20.9 °C 66.6 °F /  19.2 °C 30.05in /  1017.5hPa South 8.0mph /  12.9km/h 9.0mph /  14.5km/h 90% 0.00in /  0mm
09:27 70.5 °F /  21.4 °C 67.1 °F /  19.5 °C 30.05in /  1017.5hPa SE 8.0mph /  12.9km/h 9.0mph /  14.5km/h 89% 0.00in /  0mm
09:28 70.5 °F /  21.4 °C 67.1 °F /  19.5 °C 30.05in /  1017.5hPa SSE 7.0mph /  11.3km/h 9.0mph /  14.5km/h 89% 0.00in /  0mm
09:32 70.9 °F /  21.6 °C 67.2 °F /  19.6 °C 30.05in /  1017.5hPa South 6.0mph /  9.7km/h 9.0mph /  14.5km/h 88% 0.00in /  0mm
09:33 70.9 °F /  21.6 °C 67.2 °F /  19.6 °C 30.06in /  1017.8hPa SE 5.0mph /  8km/h 9.0mph /  14.5km/h 88% 0.00in /  0mm
09:35 70.9 °F /  21.6 °C 67.2 °F /  19.6 °C 30.05in /  1017.5hPa SSE 7.0mph /  11.3km/h 10.0mph /  16.1km/h 88% 0.00in /  0mm
09:37 70.8 °F /  21.6 °C 67.1 °F /  19.5 °C 30.05in /  1017.5hPa SSE 7.0mph /  11.3km/h 10.0mph /  16.1km/h 88% 0.00in /  0mm
09:42 70.5 °F /  21.4 °C 66.8 °F /  19.3 °C 30.05in /  1017.5hPa SSE 6.0mph /  9.7km/h 9.0mph /  14.5km/h 88% 0.00in /  0mm
09:47 70.2 °F /  21.2 °C 66.5 °F /  19.2 °C 30.06in /  1017.8hPa SE 5.0mph /  8km/h 9.0mph /  14.5km/h 88% 0.00in /  0mm
09:52 70.0 °F /  21.1 °C 66.6 °F /  19.2 °C 30.05in /  1017.5hPa SSW 4.0mph /  6.4km/h 9.0mph /  14.5km/h 89% 0.00in /  0mm
09:53 70.0 °F /  21.1 °C 66.6 °F /  19.2 °C 30.06in /  1017.8hPa SE 7.0mph /  11.3km/h 9.0mph /  14.5km/h 89% 0.00in /  0mm
09:54 69.9 °F /  21.1 °C 66.5 °F /  19.2 °C 30.05in /  1017.5hPa SE 5.0mph /  8km/h 9.0mph /  14.5km/h 89% 0.00in /  0mm
09:55 69.9 °F /  21.1 °C 66.5 °F /  19.2 °C 30.06in /  1017.8hPa SSE 4.0mph /  6.4km/h 9.0mph /  14.5km/h 89% 0.00in /  0mm
09:58 70.0 °F /  21.1 °C 66.9 °F /  19.4 °C 30.06in /  1017.8hPa SE 7.0mph /  11.3km/h 7.0mph /  11.3km/h 90% 0.00in /  0mm
10:00 70.0 °F /  21.1 °C 66.9 °F /  19.4 °C 30.06in /  1017.8hPa SSE 3.0mph /  4.8km/h 8.0mph /  12.9km/h 90% 0.00in /  0mm
10:01 70.0 °F /  21.1 °C 66.6 °F /  19.2 °C 30.05in /  1017.5hPa South 6.0mph /  9.7km/h 8.0mph /  12.9km/h 89% 0.00in /  0mm
10:06 70.2 °F /  21.2 °C 66.8 °F /  19.3 °C 30.05in /  1017.5hPa SSE 4.0mph /  6.4km/h 6.0mph /  9.7km/h 89% 0.00in /  0mm
10:11 70.4 °F /  21.3 °C 67.0 °F /  19.4 °C 30.05in /  1017.5hPa SSE 8.0mph /  12.9km/h 8.0mph /  12.9km/h 89% 0.00in /  0mm
10:16 70.7 °F /  21.5 °C 67.3 °F /  19.6 °C 30.05in /  1017.5hPa South 4.0mph /  6.4km/h 9.0mph /  14.5km/h 89% 0.00in /  0mm
10:21 71.2 °F /  21.8 °C 67.5 °F /  19.7 °C 30.05in /  1017.5hPa SSE 3.0mph /  4.8km/h 7.0mph /  11.3km/h 88% 0.00in /  0mm
10:26 71.4 °F /  21.9 °C 67.7 °F /  19.8 °C 30.05in /  1017.5hPa SSE 6.0mph /  9.7km/h 7.0mph /  11.3km/h 88% 0.00in /  0mm
10:27 71.5 °F /  21.9 °C 67.4 °F /  19.7 °C 30.05in /  1017.5hPa SSE 8.0mph /  12.9km/h 8.0mph /  12.9km/h 87% 0.00in /  0mm
10:31 71.6 °F /  22 °C 67.9 °F /  19.9 °C 30.05in /  1017.5hPa SE 7.0mph /  11.3km/h 9.0mph /  14.5km/h 88% 0.00in /  0mm
10:32 71.5 °F /  21.9 °C 67.4 °F /  19.7 °C 30.05in /  1017.5hPa SE 6.0mph /  9.7km/h 11.0mph /  17.7km/h 87% 0.00in /  0mm
10:33 71.5 °F /  21.9 °C 67.4 °F /  19.7 °C 30.05in /  1017.5hPa SSE 6.0mph /  9.7km/h 11.0mph /  17.7km/h 87% 0.00in /  0mm
10:35 71.5 °F /  21.9 °C 67.4 °F /  19.7 °C 30.05in /  1017.5hPa SSE 3.0mph /  4.8km/h 8.0mph /  12.9km/h 87% 0.00in /  0mm
10:38 71.4 °F /  21.9 °C 67.3 °F /  19.6 °C 30.05in /  1017.5hPa SSE 9.0mph /  14.5km/h 11.0mph /  17.7km/h 87% 0.00in /  0mm
10:43 71.1 °F /  21.7 °C 67.0 °F /  19.4 °C 30.05in /  1017.5hPa SSE 5.0mph /  8km/h 11.0mph /  17.7km/h 87% 0.00in /  0mm
10:48 71.0 °F /  21.7 °C 67.3 °F /  19.6 °C 30.05in /  1017.5hPa SSE 7.0mph /  11.3km/h 7.0mph /  11.3km/h 88% 0.00in /  0mm
10:53 70.9 °F /  21.6 °C 67.2 °F /  19.6 °C 30.06in /  1017.8hPa SE 5.0mph /  8km/h 11.0mph /  17.7km/h 88% 0.00in /  0mm
10:54 70.9 °F /  21.6 °C 67.2 °F /  19.6 °C 30.06in /  1017.8hPa SE 6.0mph /  9.7km/h 10.0mph /  16.1km/h 88% 0.00in /  0mm
10:58 70.6 °F /  21.4 °C 66.9 °F /  19.4 °C 30.06in /  1017.8hPa SE 8.0mph /  12.9km/h 12.0mph /  19.3km/h 88% 0.00in /  0mm
10:59 70.5 °F /  21.4 °C 66.8 °F /  19.3 °C 30.06in /  1017.8hPa SSE 9.0mph /  14.5km/h 12.0mph /  19.3km/h 88% 0.00in /  0mm
11:03 70.1 °F /  21.2 °C 66.4 °F /  19.1 °C 30.06in /  1017.8hPa ESE 7.0mph /  11.3km/h 13.0mph /  20.9km/h 88% 0.00in /  0mm
11:04 70.0 °F /  21.1 °C 66.3 °F /  19.1 °C 30.06in /  1017.8hPa SE 9.0mph /  14.5km/h 13.0mph /  20.9km/h 88% 0.00in /  0mm
11:09 69.9 °F /  21.1 °C 66.2 °F /  19 °C 30.06in /  1017.8hPa SSE 9.0mph /  14.5km/h 15.0mph /  24.1km/h 88% 0.00in /  0mm
11:10 69.9 °F /  21.1 °C 66.2 °F /  19 °C 30.06in /  1017.8hPa SE 9.0mph /  14.5km/h 15.0mph /  24.1km/h 88% 0.00in /  0mm
11:15 70.6 °F /  21.4 °C 66.9 °F /  19.4 °C 30.05in /  1017.5hPa SSE 11.0mph /  17.7km/h 12.0mph /  19.3km/h 88% 0.00in /  0mm
11:20 71.1 °F /  21.7 °C 67.0 °F /  19.4 °C 30.06in /  1017.8hPa SE 7.0mph /  11.3km/h 12.0mph /  19.3km/h 87% 0.00in /  0mm
11:25 71.5 °F /  21.9 °C 67.1 °F /  19.5 °C 30.06in /  1017.8hPa SSE 11.0mph /  17.7km/h 11.0mph /  17.7km/h 86% 0.00in /  0mm
11:26 71.6 °F /  22 °C 67.2 °F /  19.6 °C 30.06in /  1017.8hPa SE 8.0mph /  12.9km/h 11.0mph /  17.7km/h 86% 0.00in /  0mm
11:29 71.6 °F /  22 °C 66.9 °F /  19.4 °C 30.06in /  1017.8hPa SE 12.0mph /  19.3km/h 16.0mph /  25.7km/h 85% 0.00in /  0mm
11:30 71.6 °F /  22 °C 66.9 °F /  19.4 °C 30.06in /  1017.8hPa SSW 11.0mph /  17.7km/h 16.0mph /  25.7km/h 85% 0.00in /  0mm
11:31 71.6 °F /  22 °C 66.9 °F /  19.4 °C 30.06in /  1017.8hPa SSW 5.0mph /  8km/h 16.0mph /  25.7km/h 85% 0.00in /  0mm
11:35 71.7 °F /  22.1 °C 67.3 °F /  19.6 °C 30.06in /  1017.8hPa SSE 9.0mph /  14.5km/h 15.0mph /  24.1km/h 86% 0.00in /  0mm
11:36 71.7 °F /  22.1 °C 66.9 °F /  19.4 °C 30.06in /  1017.8hPa SSE 6.0mph /  9.7km/h 16.0mph /  25.7km/h 85% 0.00in /  0mm
11:41 71.7 °F /  22.1 °C 66.9 °F /  19.4 °C 30.06in /  1017.8hPa SSE 10.0mph /  16.1km/h 13.0mph /  20.9km/h 85% 0.00in /  0mm
11:46 71.7 °F /  22.1 °C 66.9 °F /  19.4 °C 30.06in /  1017.8hPa SE 8.0mph /  12.9km/h 12.0mph /  19.3km/h 85% 0.00in /  0mm
11:51 71.6 °F /  22 °C 66.9 °F /  19.4 °C 30.06in /  1017.8hPa SE 10.0mph /  16.1km/h 16.0mph /  25.7km/h 85% 0.00in /  0mm
11:52 71.6 °F /  22 °C 66.5 °F /  19.2 °C 30.06in /  1017.8hPa SE 13.0mph /  20.9km/h 15.0mph /  24.1km/h 84% 0.00in /  0mm
11:56 71.9 °F /  22.2 °C 67.2 °F /  19.6 °C 30.06in /  1017.8hPa SE 11.0mph /  17.7km/h 14.0mph /  22.5km/h 85% 0.00in /  0mm
11:57 72.0 °F /  22.2 °C 67.2 °F /  19.6 °C 30.06in /  1017.8hPa SSE 9.0mph /  14.5km/h 14.0mph /  22.5km/h 85% 0.00in /  0mm
11:58 72.1 °F /  22.3 °C 67.7 °F /  19.8 °C 30.06in /  1017.8hPa SE 12.0mph /  19.3km/h 14.0mph /  22.5km/h 86% 0.00in /  0mm
12:01 72.2 °F /  22.3 °C 67.1 °F /  19.5 °C 30.06in /  1017.8hPa SSE 10.0mph /  16.1km/h 14.0mph /  22.5km/h 84% 0.00in /  0mm
12:06 72.5 °F /  22.5 °C 67.1 °F /  19.5 °C 30.06in /  1017.8hPa SE 8.0mph /  12.9km/h 12.0mph /  19.3km/h 83% 0.00in /  0mm
12:11 73.0 °F /  22.8 °C 67.2 °F /  19.6 °C 30.05in /  1017.5hPa SE 9.0mph /  14.5km/h 13.0mph /  20.9km/h 82% 0.00in /  0mm
12:17 72.9 °F /  22.7 °C 66.7 °F /  19.3 °C 30.06in /  1017.8hPa SE 11.0mph /  17.7km/h 16.0mph /  25.7km/h 81% 0.00in /  0mm
12:22 72.8 °F /  22.7 °C 67.0 °F /  19.4 °C 30.05in /  1017.5hPa SE 9.0mph /  14.5km/h 14.0mph /  22.5km/h 82% 0.00in /  0mm
12:27 73.0 °F /  22.8 °C 66.8 °F /  19.3 °C 30.05in /  1017.5hPa SSE 7.0mph /  11.3km/h 12.0mph /  19.3km/h 81% 0.00in /  0mm
12:32 72.6 °F /  22.6 °C 67.2 °F /  19.6 °C 30.05in /  1017.5hPa SSE 8.0mph /  12.9km/h 11.0mph /  17.7km/h 83% 0.00in /  0mm
12:33 72.5 °F /  22.5 °C 66.7 °F /  19.3 °C 30.05in /  1017.5hPa SSE 6.0mph /  9.7km/h 10.0mph /  16.1km/h 82% 0.00in /  0mm
12:34 72.5 °F /  22.5 °C 67.1 °F /  19.5 °C 30.05in /  1017.5hPa SSE 6.0mph /  9.7km/h 11.0mph /  17.7km/h 83% 0.00in /  0mm
12:37 72.3 °F /  22.4 °C 66.5 °F /  19.2 °C 30.05in /  1017.5hPa SSE 10.0mph /  16.1km/h 13.0mph /  20.9km/h 82% 0.00in /  0mm
12:42 72.4 °F /  22.4 °C 66.2 °F /  19 °C 30.05in /  1017.5hPa SE 12.0mph /  19.3km/h 17.0mph /  27.4km/h 81% 0.00in /  0mm
12:47 72.9 °F /  22.7 °C 66.7 °F /  19.3 °C 30.05in /  1017.5hPa SSE 13.0mph /  20.9km/h 19.0mph /  30.6km/h 81% 0.00in /  0mm
12:49 73.2 °F /  22.9 °C 67.0 °F /  19.4 °C 30.04in /  1017.2hPa SSE 10.0mph /  16.1km/h 19.0mph /  30.6km/h 81% 0.00in /  0mm
12:54 74.2 °F /  23.4 °C 67.6 °F /  19.8 °C 30.04in /  1017.2hPa SE 13.0mph /  20.9km/h 17.0mph /  27.4km/h 80% 0.00in /  0mm
12:57 74.6 °F /  23.7 °C 68.0 °F /  20 °C 30.04in /  1017.2hPa SE 10.0mph /  16.1km/h 12.0mph /  19.3km/h 80% 0.00in /  0mm
13:01 75.1 °F /  23.9 °C 68.5 °F /  20.3 °C 30.04in /  1017.2hPa South 9.0mph /  14.5km/h 13.0mph /  20.9km/h 80% 0.00in /  0mm
13:02 75.4 °F /  24.1 °C 67.7 °F /  19.8 °C 30.04in /  1017.2hPa South 7.0mph /  11.3km/h 12.0mph /  19.3km/h 77% 0.00in /  0mm
13:06 75.9 °F /  24.4 °C 68.6 °F /  20.3 °C 30.03in /  1016.8hPa SE 12.0mph /  19.3km/h 12.0mph /  19.3km/h 78% 0.00in /  0mm
13:11 75.7 °F /  24.3 °C 68.0 °F /  20 °C 30.03in /  1016.8hPa SSE 4.0mph /  6.4km/h 14.0mph /  22.5km/h 77% 0.00in /  0mm
13:17 75.7 °F /  24.3 °C 67.6 °F /  19.8 °C 30.03in /  1016.8hPa SSE 12.0mph /  19.3km/h 12.0mph /  19.3km/h 76% 0.00in /  0mm
13:22 75.8 °F /  24.3 °C 67.7 °F /  19.8 °C 30.03in /  1016.8hPa South 9.0mph /  14.5km/h 14.0mph /  22.5km/h 76% 0.00in /  0mm
13:27 75.7 °F /  24.3 °C 67.6 °F /  19.8 °C 30.03in /  1016.8hPa SSW 8.0mph /  12.9km/h 14.0mph /  22.5km/h 76% 0.00in /  0mm
13:28 75.6 °F /  24.2 °C 67.5 °F /  19.7 °C 30.03in /  1016.8hPa SSW 5.0mph /  8km/h 14.0mph /  22.5km/h 76% 0.00in /  0mm
13:32 75.8 °F /  24.3 °C 67.7 °F /  19.8 °C 30.03in /  1016.8hPa South 9.0mph /  14.5km/h 20.0mph /  32.2km/h 76% 0.00in /  0mm
13:33 75.8 °F /  24.3 °C 67.7 °F /  19.8 °C 30.03in /  1016.8hPa South 7.0mph /  11.3km/h 20.0mph /  32.2km/h 76% 0.00in /  0mm
13:35 75.9 °F /  24.4 °C 67.8 °F /  19.9 °C 30.04in /  1017.2hPa SSE 14.0mph /  22.5km/h 14.0mph /  22.5km/h 76% 0.00in /  0mm
13:38 76.2 °F /  24.6 °C 68.1 °F /  20.1 °C 30.03in /  1016.8hPa SW 10.0mph /  16.1km/h 15.0mph /  24.1km/h 76% 0.00in /  0mm
13:40 76.2 °F /  24.6 °C 67.3 °F /  19.6 °C 30.03in /  1016.8hPa South 7.0mph /  11.3km/h 15.0mph /  24.1km/h 74% 0.00in /  0mm
13:41 76.2 °F /  24.6 °C 67.7 °F /  19.8 °C 30.03in /  1016.8hPa SE 9.0mph /  14.5km/h 15.0mph /  24.1km/h 75% 0.00in /  0mm
13:45 75.9 °F /  24.4 °C 67.8 °F /  19.9 °C 30.03in /  1016.8hPa South 10.0mph /  16.1km/h 16.0mph /  25.7km/h 76% 0.00in /  0mm
13:47 75.8 °F /  24.3 °C 67.3 °F /  19.6 °C 30.03in /  1016.8hPa SSW 15.0mph /  24.1km/h 15.0mph /  24.1km/h 75% 0.00in /  0mm
13:50 75.8 °F /  24.3 °C 67.7 °F /  19.8 °C 30.03in /  1016.8hPa SE 5.0mph /  8km/h 17.0mph /  27.4km/h 76% 0.00in /  0mm
13:52 75.9 °F /  24.4 °C 67.8 °F /  19.9 °C 30.03in /  1016.8hPa South 4.0mph /  6.4km/h 17.0mph /  27.4km/h 76% 0.00in /  0mm
13:53 76.0 °F /  24.4 °C 68.3 °F /  20.2 °C 30.03in /  1016.8hPa ESE 6.0mph /  9.7km/h 11.0mph /  17.7km/h 77% 0.00in /  0mm
13:58 76.5 °F /  24.7 °C 68.0 °F /  20 °C 30.03in /  1016.8hPa SSE 10.0mph /  16.1km/h 12.0mph /  19.3km/h 75% 0.00in /  0mm
14:03 77.0 °F /  25 °C 68.1 °F /  20.1 °C 30.03in /  1016.8hPa SSE 9.0mph /  14.5km/h 18.0mph /  29km/h 74% 0.00in /  0mm
14:08 77.1 °F /  25.1 °C 68.6 °F /  20.3 °C 30.02in /  1016.5hPa SSE 7.0mph /  11.3km/h 19.0mph /  30.6km/h 75% 0.00in /  0mm
14:13 76.4 °F /  24.7 °C 67.5 °F /  19.7 °C 30.02in /  1016.5hPa SSE 16.0mph /  25.7km/h 18.0mph /  29km/h 74% 0.00in /  0mm
14:18 75.7 °F /  24.3 °C 67.2 °F /  19.6 °C 30.02in /  1016.5hPa South 8.0mph /  12.9km/h 17.0mph /  27.4km/h 75% 0.00in /  0mm
14:23 75.8 °F /  24.3 °C 67.3 °F /  19.6 °C 30.02in /  1016.5hPa SE 7.0mph /  11.3km/h 13.0mph /  20.9km/h 75% 0.00in /  0mm
14:28 77.0 °F /  25 °C 67.7 °F /  19.8 °C 30.02in /  1016.5hPa SE 6.0mph /  9.7km/h 14.0mph /  22.5km/h 73% 0.00in /  0mm
14:29 77.1 °F /  25.1 °C 68.6 °F /  20.3 °C 30.02in /  1016.5hPa SE 11.0mph /  17.7km/h 14.0mph /  22.5km/h 75% 0.00in /  0mm
14:34 77.6 °F /  25.3 °C 68.7 °F /  20.4 °C 30.02in /  1016.5hPa SE 6.0mph /  9.7km/h 12.0mph /  19.3km/h 74% 0.00in /  0mm
14:39 77.6 °F /  25.3 °C 67.9 °F /  19.9 °C 30.02in /  1016.5hPa South 11.0mph /  17.7km/h 18.0mph /  29km/h 72% 0.00in /  0mm
14:44 78.3 °F /  25.7 °C 68.1 °F /  20.1 °C 30.02in /  1016.5hPa South 7.0mph /  11.3km/h 14.0mph /  22.5km/h 71% 0.00in /  0mm
14:45 78.3 °F /  25.7 °C 68.1 °F /  20.1 °C 30.02in /  1016.5hPa South 8.0mph /  12.9km/h 14.0mph /  22.5km/h 71% 0.00in /  0mm
14:49 78.4 °F /  25.8 °C 67.4 °F /  19.7 °C 30.02in /  1016.5hPa SE 12.0mph /  19.3km/h 19.0mph /  30.6km/h 69% 0.00in /  0mm
14:55 78.1 °F /  25.6 °C 67.5 °F /  19.7 °C 30.02in /  1016.5hPa SSE 13.0mph /  20.9km/h 17.0mph /  27.4km/h 70% 0.00in /  0mm
15:00 78.8 °F /  26 °C 69.0 °F /  20.6 °C 30.01in /  1016.1hPa SSE 9.0mph /  14.5km/h 14.0mph /  22.5km/h 72% 0.00in /  0mm
15:05 79.2 °F /  26.2 °C 67.7 °F /  19.8 °C 30.01in /  1016.1hPa SE 10.0mph /  16.1km/h 15.0mph /  24.1km/h 68% 0.00in /  0mm
15:10 78.4 °F /  25.8 °C 68.2 °F /  20.1 °C 30.01in /  1016.1hPa SE 9.0mph /  14.5km/h 17.0mph /  27.4km/h 71% 0.00in /  0mm
15:15 79.1 °F /  26.2 °C 68.5 °F /  20.3 °C 30.01in /  1016.1hPa SE 5.0mph /  8km/h 11.0mph /  17.7km/h 70% 0.00in /  0mm
15:16 79.3 °F /  26.3 °C 68.3 °F /  20.2 °C 30.01in /  1016.1hPa South 3.0mph /  4.8km/h 11.0mph /  17.7km/h 69% 0.00in /  0mm
15:21 79.7 °F /  26.5 °C 67.8 °F /  19.9 °C 30.01in /  1016.1hPa SSE 11.0mph /  17.7km/h 16.0mph /  25.7km/h 67% 0.00in /  0mm
15:26 79.7 °F /  26.5 °C 66.5 °F /  19.2 °C 30.01in /  1016.1hPa SSE 11.0mph /  17.7km/h 14.0mph /  22.5km/h 64% 0.00in /  0mm
15:27 79.5 °F /  26.4 °C 66.3 °F /  19.1 °C 30.00in /  1015.8hPa SE 18.0mph /  29km/h 18.0mph /  29km/h 64% 0.00in /  0mm
15:28 79.4 °F /  26.3 °C 67.5 °F /  19.7 °C 30.00in /  1015.8hPa SSE 11.0mph /  17.7km/h 18.0mph /  29km/h 67% 0.00in /  0mm
15:31 79.7 °F /  26.5 °C 67.8 °F /  19.9 °C 30.00in /  1015.8hPa SE 17.0mph /  27.4km/h 17.0mph /  27.4km/h 67% 0.00in /  0mm
15:32 79.8 °F /  26.6 °C 67.9 °F /  19.9 °C 30.00in /  1015.8hPa SE 11.0mph /  17.7km/h 17.0mph /  27.4km/h 67% 0.00in /  0mm
15:36 79.8 °F /  26.6 °C 67.0 °F /  19.4 °C 30.00in /  1015.8hPa SSW 8.0mph /  12.9km/h 16.0mph /  25.7km/h 65% 0.00in /  0mm
15:41 79.4 °F /  26.3 °C 67.9 °F /  19.9 °C 30.00in /  1015.8hPa SSE 9.0mph /  14.5km/h 11.0mph /  17.7km/h 68% 0.00in /  0mm
15:46 78.9 °F /  26.1 °C 67.0 °F /  19.4 °C 30.00in /  1015.8hPa SSE 14.0mph /  22.5km/h 14.0mph /  22.5km/h 67% 0.00in /  0mm
15:51 78.9 °F /  26.1 °C 67.0 °F /  19.4 °C 30.00in /  1015.8hPa South 12.0mph /  19.3km/h 14.0mph /  22.5km/h 67% 0.00in /  0mm
15:52 78.9 °F /  26.1 °C 66.6 °F /  19.2 °C 30.00in /  1015.8hPa South 12.0mph /  19.3km/h 14.0mph /  22.5km/h 66% 0.00in /  0mm
15:57 78.8 °F /  26 °C 66.9 °F /  19.4 °C 29.99in /  1015.5hPa SSE 9.0mph /  14.5km/h 14.0mph /  22.5km/h 67% 0.00in /  0mm
15:58 78.8 °F /  26 °C 66.9 °F /  19.4 °C 29.99in /  1015.5hPa SSE 10.0mph /  16.1km/h 14.0mph /  22.5km/h 67% 0.00in /  0mm
16:00 78.6 °F /  25.9 °C 66.3 °F /  19.1 °C 30.00in /  1015.8hPa SW 7.0mph /  11.3km/h 15.0mph /  24.1km/h 66% 0.00in /  0mm
16:04 79.0 °F /  26.1 °C 67.6 °F /  19.8 °C 29.99in /  1015.5hPa South 9.0mph /  14.5km/h 13.0mph /  20.9km/h 68% 0.00in /  0mm
16:09 79.0 °F /  26.1 °C 67.6 °F /  19.8 °C 29.99in /  1015.5hPa SW 8.0mph /  12.9km/h 16.0mph /  25.7km/h 68% 0.00in /  0mm
16:14 79.4 °F /  26.3 °C 67.5 °F /  19.7 °C 29.99in /  1015.5hPa South 6.0mph /  9.7km/h 16.0mph /  25.7km/h 67% 0.00in /  0mm
16:19 79.6 °F /  26.4 °C 67.2 °F /  19.6 °C 29.99in /  1015.5hPa South 12.0mph /  19.3km/h 14.0mph /  22.5km/h 66% 0.00in /  0mm
16:24 79.8 °F /  26.6 °C 66.6 °F /  19.2 °C 29.98in /  1015.1hPa SE 13.0mph /  20.9km/h 18.0mph /  29km/h 64% 0.00in /  0mm
16:29 80.3 °F /  26.8 °C 67.5 °F /  19.7 °C 29.98in /  1015.1hPa SE 13.0mph /  20.9km/h 14.0mph /  22.5km/h 65% 0.00in /  0mm
16:34 79.9 °F /  26.6 °C 66.7 °F /  19.3 °C 29.98in /  1015.1hPa SW 9.0mph /  14.5km/h 16.0mph /  25.7km/h 64% 0.00in /  0mm
16:35 79.9 °F /  26.6 °C 66.7 °F /  19.3 °C 29.98in /  1015.1hPa SE 11.0mph /  17.7km/h 16.0mph /  25.7km/h 64% 0.00in /  0mm
16:36 79.8 °F /  26.6 °C 66.6 °F /  19.2 °C 29.98in /  1015.1hPa SE 10.0mph /  16.1km/h 14.0mph /  22.5km/h 64% 0.00in /  0mm
16:40 79.9 °F /  26.6 °C 67.1 °F /  19.5 °C 29.98in /  1015.1hPa SSE 12.0mph /  19.3km/h 16.0mph /  25.7km/h 65% 0.00in /  0mm
16:42 80.1 °F /  26.7 °C 67.3 °F /  19.6 °C 29.97in /  1014.8hPa SE 8.0mph /  12.9km/h 12.0mph /  19.3km/h 65% 0.00in /  0mm
16:47 80.0 °F /  26.7 °C 66.3 °F /  19.1 °C 29.97in /  1014.8hPa South 11.0mph /  17.7km/h 15.0mph /  24.1km/h 63% 0.00in /  0mm
16:48 80.0 °F /  26.7 °C 66.3 °F /  19.1 °C 29.97in /  1014.8hPa SE 14.0mph /  22.5km/h 15.0mph /  24.1km/h 63% 0.00in /  0mm
16:53 79.3 °F /  26.3 °C 65.6 °F /  18.7 °C 29.97in /  1014.8hPa SSE 11.0mph /  17.7km/h 19.0mph /  30.6km/h 63% 0.00in /  0mm
16:54 79.2 °F /  26.2 °C 66.0 °F /  18.9 °C 29.97in /  1014.8hPa SSE 7.0mph /  11.3km/h 16.0mph /  25.7km/h 64% 0.00in /  0mm
16:58 79.1 °F /  26.2 °C 65.9 °F /  18.8 °C 29.97in /  1014.8hPa SSE 7.0mph /  11.3km/h 12.0mph /  19.3km/h 64% 0.00in /  0mm
17:03 79.2 °F /  26.2 °C 66.0 °F /  18.9 °C 29.97in /  1014.8hPa SSE 8.0mph /  12.9km/h 11.0mph /  17.7km/h 64% 0.00in /  0mm
17:08 79.1 °F /  26.2 °C 65.4 °F /  18.6 °C 29.97in /  1014.8hPa SE 13.0mph /  20.9km/h 18.0mph /  29km/h 63% 0.00in /  0mm
17:13 79.0 °F /  26.1 °C 65.3 °F /  18.5 °C 29.96in /  1014.4hPa South 7.0mph /  11.3km/h 12.0mph /  19.3km/h 63% 0.00in /  0mm
17:18 78.8 °F /  26 °C 66.5 °F /  19.2 °C 29.96in /  1014.4hPa SE 6.0mph /  9.7km/h 9.0mph /  14.5km/h 66% 0.00in /  0mm
17:23 78.8 °F /  26 °C 66.1 °F /  18.9 °C 29.97in /  1014.8hPa SSW 6.0mph /  9.7km/h 13.0mph /  20.9km/h 65% 0.00in /  0mm
17:24 78.8 °F /  26 °C 66.1 °F /  18.9 °C 29.97in /  1014.8hPa SSW 6.0mph /  9.7km/h 13.0mph /  20.9km/h 65% 0.00in /  0mm
17:29 78.9 °F /  26.1 °C 66.2 °F /  19 °C 29.97in /  1014.8hPa SSE 14.0mph /  22.5km/h 14.0mph /  22.5km/h 65% 0.00in /  0mm
17:34 79.2 °F /  26.2 °C 66.9 °F /  19.4 °C 29.96in /  1014.4hPa SSE 7.0mph /  11.3km/h 10.0mph /  16.1km/h 66% 0.00in /  0mm
17:35 79.2 °F /  26.2 °C 66.0 °F /  18.9 °C 29.96in /  1014.4hPa SE 10.0mph /  16.1km/h 10.0mph /  16.1km/h 64% 0.00in /  0mm
17:36 79.3 °F /  26.3 °C 65.6 °F /  18.7 °C 29.97in /  1014.8hPa SSE 9.0mph /  14.5km/h 13.0mph /  20.9km/h 63% 0.00in /  0mm
17:40 79.4 °F /  26.3 °C 66.2 °F /  19 °C 29.96in /  1014.4hPa South 9.0mph /  14.5km/h 12.0mph /  19.3km/h 64% 0.00in /  0mm
17:41 79.5 °F /  26.4 °C 65.8 °F /  18.8 °C 29.96in /  1014.4hPa SSE 6.0mph /  9.7km/h 12.0mph /  19.3km/h 63% 0.00in /  0mm
17:46 79.7 °F /  26.5 °C 66.0 °F /  18.9 °C 29.95in /  1014.1hPa SSE 6.0mph /  9.7km/h 9.0mph /  14.5km/h 63% 0.00in /  0mm
17:51 79.7 °F /  26.5 °C 66.5 °F /  19.2 °C 29.95in /  1014.1hPa SSE 7.0mph /  11.3km/h 12.0mph /  19.3km/h 64% 0.00in /  0mm
17:52 79.7 °F /  26.5 °C 65.5 °F /  18.6 °C 29.95in /  1014.1hPa SSE 13.0mph /  20.9km/h 14.0mph /  22.5km/h 62% 0.00in /  0mm
17:54 80.0 °F /  26.7 °C 65.8 °F /  18.8 °C 29.95in /  1014.1hPa SSE 10.0mph /  16.1km/h 14.0mph /  22.5km/h 62% 0.00in /  0mm
17:58 80.2 °F /  26.8 °C 65.5 °F /  18.6 °C 29.95in /  1014.1hPa SE 5.0mph /  8km/h 14.0mph /  22.5km/h 61% 0.00in /  0mm
17:59 80.3 °F /  26.8 °C 65.6 °F /  18.7 °C 29.95in /  1014.1hPa SE 12.0mph /  19.3km/h 14.0mph /  22.5km/h 61% 0.00in /  0mm
18:04 80.6 °F /  27 °C 66.4 °F /  19.1 °C 29.95in /  1014.1hPa ESE 8.0mph /  12.9km/h 11.0mph /  17.7km/h 62% 0.00in /  0mm
18:09 80.9 °F /  27.2 °C 65.7 °F /  18.7 °C 29.95in /  1014.1hPa South 9.0mph /  14.5km/h 17.0mph /  27.4km/h 60% 0.00in /  0mm
18:10 80.9 °F /  27.2 °C 65.7 °F /  18.7 °C 29.95in /  1014.1hPa SSE 10.0mph /  16.1km/h 17.0mph /  27.4km/h 60% 0.00in /  0mm
18:15 80.6 °F /  27 °C 66.4 °F /  19.1 °C 29.96in /  1014.4hPa SSE 5.0mph /  8km/h 15.0mph /  24.1km/h 62% 0.00in /  0mm
18:20 80.0 °F /  26.7 °C 65.8 °F /  18.8 °C 29.96in /  1014.4hPa SSW 4.0mph /  6.4km/h 13.0mph /  20.9km/h 62% 0.00in /  0mm
18:25 79.5 °F /  26.4 °C 64.9 °F /  18.3 °C 29.96in /  1014.4hPa SSE 8.0mph /  12.9km/h 15.0mph /  24.1km/h 61% 0.00in /  0mm
18:26 79.4 °F /  26.3 °C 64.8 °F /  18.2 °C 29.96in /  1014.4hPa South 6.0mph /  9.7km/h 15.0mph /  24.1km/h 61% 0.00in /  0mm
18:29 79.2 °F /  26.2 °C 65.1 °F /  18.4 °C 29.96in /  1014.4hPa SSE 7.0mph /  11.3km/h 13.0mph /  20.9km/h 62% 0.00in /  0mm
18:32 78.9 °F /  26.1 °C 65.7 °F /  18.7 °C 29.95in /  1014.1hPa SSE 5.0mph /  8km/h 11.0mph /  17.7km/h 64% 0.00in /  0mm
18:34 78.7 °F /  25.9 °C 65.1 °F /  18.4 °C 29.96in /  1014.4hPa SE 11.0mph /  17.7km/h 14.0mph /  22.5km/h 63% 0.00in /  0mm
18:35 78.7 °F /  25.9 °C 65.1 °F /  18.4 °C 29.95in /  1014.1hPa SE 10.0mph /  16.1km/h 14.0mph /  22.5km/h 63% 0.00in /  0mm
18:40 78.4 °F /  25.8 °C 65.2 °F /  18.4 °C 29.95in /  1014.1hPa SSW 6.0mph /  9.7km/h 11.0mph /  17.7km/h 64% 0.00in /  0mm
18:45 78.1 °F /  25.6 °C 65.4 °F /  18.6 °C 29.95in /  1014.1hPa South 7.0mph /  11.3km/h 10.0mph /  16.1km/h 65% 0.00in /  0mm
18:50 78.1 °F /  25.6 °C 65.8 °F /  18.8 °C 29.95in /  1014.1hPa SSW 4.0mph /  6.4km/h 8.0mph /  12.9km/h 66% 0.00in /  0mm
18:55 78.1 °F /  25.6 °C 65.8 °F /  18.8 °C 29.94in /  1013.8hPa SSE 5.0mph /  8km/h 8.0mph /  12.9km/h 66% 0.00in /  0mm
18:56 78.1 °F /  25.6 °C 65.8 °F /  18.8 °C 29.94in /  1013.8hPa SSE 2.0mph /  3.2km/h 8.0mph /  12.9km/h 66% 0.00in /  0mm
19:01 77.9 °F /  25.5 °C 66.1 °F /  18.9 °C 29.94in /  1013.8hPa SSE 8.0mph /  12.9km/h 9.0mph /  14.5km/h 67% 0.00in /  0mm
19:06 77.9 °F /  25.5 °C 66.1 °F /  18.9 °C 29.94in /  1013.8hPa SSE 9.0mph /  14.5km/h 10.0mph /  16.1km/h 67% 0.00in /  0mm
19:11 77.8 °F /  25.4 °C 66.0 °F /  18.9 °C 29.94in /  1013.8hPa SSE 12.0mph /  19.3km/h 13.0mph /  20.9km/h 67% 0.00in /  0mm
19:16 77.7 °F /  25.4 °C 65.9 °F /  18.8 °C 29.94in /  1013.8hPa South 12.0mph /  19.3km/h 16.0mph /  25.7km/h 67% 0.00in /  0mm
19:21 77.7 °F /  25.4 °C 66.3 °F /  19.1 °C 29.94in /  1013.8hPa SSE 6.0mph /  9.7km/h 14.0mph /  22.5km/h 68% 0.00in /  0mm
19:26 77.6 °F /  25.3 °C 65.8 °F /  18.8 °C 29.94in /  1013.8hPa South 4.0mph /  6.4km/h 11.0mph /  17.7km/h 67% 0.00in /  0mm
19:27 77.6 °F /  25.3 °C 65.8 °F /  18.8 °C 29.94in /  1013.8hPa SSE 8.0mph /  12.9km/h 11.0mph /  17.7km/h 67% 0.00in /  0mm
19:29 77.5 °F /  25.3 °C 66.1 °F /  18.9 °C 29.94in /  1013.8hPa South 6.0mph /  9.7km/h 10.0mph /  16.1km/h 68% 0.00in /  0mm
19:31 77.4 °F /  25.2 °C 66.0 °F /  18.9 °C 29.94in /  1013.8hPa SSE 5.0mph /  8km/h 10.0mph /  16.1km/h 68% 0.00in /  0mm
19:36 77.1 °F /  25.1 °C 66.2 °F /  19 °C 29.94in /  1013.8hPa South 5.0mph /  8km/h 9.0mph /  14.5km/h 69% 0.00in /  0mm
19:37 77.1 °F /  25.1 °C 66.6 °F /  19.2 °C 29.94in /  1013.8hPa SSE 5.0mph /  8km/h 9.0mph /  14.5km/h 70% 0.00in /  0mm
19:42 76.8 °F /  24.9 °C 66.7 °F /  19.3 °C 29.93in /  1013.4hPa SSE 4.0mph /  6.4km/h 8.0mph /  12.9km/h 71% 0.00in /  0mm
19:47 76.5 °F /  24.7 °C 66.4 °F /  19.1 °C 29.93in /  1013.4hPa SE 4.0mph /  6.4km/h 7.0mph /  11.3km/h 71% 0.00in /  0mm
19:52 76.2 °F /  24.6 °C 66.5 °F /  19.2 °C 29.93in /  1013.4hPa SSE 7.0mph /  11.3km/h 8.0mph /  12.9km/h 72% 0.00in /  0mm
19:54 76.2 °F /  24.6 °C 66.5 °F /  19.2 °C 29.93in /  1013.4hPa South 4.0mph /  6.4km/h 8.0mph /  12.9km/h 72% 0.00in /  0mm
19:57 76.2 °F /  24.6 °C 66.9 °F /  19.4 °C 29.94in /  1013.8hPa SSE 5.0mph /  8km/h 8.0mph /  12.9km/h 73% 0.00in /  0mm
19:58 76.2 °F /  24.6 °C 66.9 °F /  19.4 °C 29.94in /  1013.8hPa SSE 5.0mph /  8km/h 8.0mph /  12.9km/h 73% 0.00in /  0mm
20:03 76.1 °F /  24.5 °C 66.8 °F /  19.3 °C 29.93in /  1013.4hPa SSE 6.0mph /  9.7km/h 9.0mph /  14.5km/h 73% 0.00in /  0mm
20:11 75.5 °F /  24.2 °C 66.6 °F /  19.2 °C 29.93in /  1013.4hPa SSE 4.0mph /  6.4km/h 6.0mph /  9.7km/h 74% 0.00in /  0mm
20:16 75.3 °F /  24.1 °C 66.8 °F /  19.3 °C 29.94in /  1013.8hPa SSE 3.0mph /  4.8km/h 11.0mph /  17.7km/h 75% 0.00in /  0mm
20:21 75.1 °F /  23.9 °C 66.6 °F /  19.2 °C 29.94in /  1013.8hPa SSE 4.0mph /  6.4km/h 12.0mph /  19.3km/h 75% 0.00in /  0mm
20:26 74.9 °F /  23.8 °C 66.4 °F /  19.1 °C 29.94in /  1013.8hPa South 4.0mph /  6.4km/h 8.0mph /  12.9km/h 75% 0.00in /  0mm
20:27 74.9 °F /  23.8 °C 66.4 °F /  19.1 °C 29.94in /  1013.8hPa South 4.0mph /  6.4km/h 8.0mph /  12.9km/h 75% 0.00in /  0mm
20:30 74.9 °F /  23.8 °C 66.1 °F /  18.9 °C 29.95in /  1014.1hPa SSW 4.0mph /  6.4km/h 9.0mph /  14.5km/h 74% 0.00in /  0mm
20:32 74.8 °F /  23.8 °C 66.0 °F /  18.9 °C 29.94in /  1013.8hPa SSW 4.0mph /  6.4km/h 12.0mph /  19.3km/h 74% 0.00in /  0mm
20:34 74.8 °F /  23.8 °C 66.0 °F /  18.9 °C 29.94in /  1013.8hPa SSE 8.0mph /  12.9km/h 8.0mph /  12.9km/h 74% 0.00in /  0mm
20:36 74.7 °F /  23.7 °C 65.9 °F /  18.8 °C 29.94in /  1013.8hPa SSW 7.0mph /  11.3km/h 9.0mph /  14.5km/h 74% 0.00in /  0mm
20:41 74.6 °F /  23.7 °C 65.8 °F /  18.8 °C 29.94in /  1013.8hPa SSW 6.0mph /  9.7km/h 6.0mph /  9.7km/h 74% 0.00in /  0mm
20:46 74.5 °F /  23.6 °C 65.7 °F /  18.7 °C 29.95in /  1014.1hPa SW 4.0mph /  6.4km/h 7.0mph /  11.3km/h 74% 0.00in /  0mm
20:51 74.3 °F /  23.5 °C 65.5 °F /  18.6 °C 29.95in /  1014.1hPa South 5.0mph /  8km/h 7.0mph /  11.3km/h 74% 0.00in /  0mm
20:52 74.3 °F /  23.5 °C 65.5 °F /  18.6 °C 29.95in /  1014.1hPa South 7.0mph /  11.3km/h 7.0mph /  11.3km/h 74% 0.00in /  0mm
20:57 74.3 °F /  23.5 °C 65.5 °F /  18.6 °C 29.95in /  1014.1hPa SSW 3.0mph /  4.8km/h 11.0mph /  17.7km/h 74% 0.00in /  0mm
20:58 74.3 °F /  23.5 °C 65.5 °F /  18.6 °C 29.95in /  1014.1hPa South 5.0mph /  8km/h 7.0mph /  11.3km/h 74% 0.00in /  0mm
21:02 74.2 °F /  23.4 °C 65.4 °F /  18.6 °C 29.95in /  1014.1hPa South 3.0mph /  4.8km/h 7.0mph /  11.3km/h 74% 0.00in /  0mm
21:03 74.2 °F /  23.4 °C 65.4 °F /  18.6 °C 29.95in /  1014.1hPa SSE 2.0mph /  3.2km/h 7.0mph /  11.3km/h 74% 0.00in /  0mm
21:08 74.1 °F /  23.4 °C 65.3 °F /  18.5 °C 29.95in /  1014.1hPa SW 2.0mph /  3.2km/h 8.0mph /  12.9km/h 74% 0.00in /  0mm
21:13 73.9 °F /  23.3 °C 65.5 °F /  18.6 °C 29.95in /  1014.1hPa SSW 3.0mph /  4.8km/h 7.0mph /  11.3km/h 75% 0.00in /  0mm
21:18 73.8 °F /  23.2 °C 65.4 °F /  18.6 °C 29.95in /  1014.1hPa SSW 2.0mph /  3.2km/h 7.0mph /  11.3km/h 75% 0.00in /  0mm
21:23 73.5 °F /  23.1 °C 65.1 °F /  18.4 °C 29.96in /  1014.4hPa WSW 3.0mph /  4.8km/h 5.0mph /  8km/h 75% 0.00in /  0mm
21:28 73.2 °F /  22.9 °C 65.2 °F /  18.4 °C 29.96in /  1014.4hPa WSW 3.0mph /  4.8km/h 5.0mph /  8km/h 76% 0.00in /  0mm
21:29 73.1 °F /  22.8 °C 65.1 °F /  18.4 °C 29.96in /  1014.4hPa South 5.0mph /  8km/h 5.0mph /  8km/h 76% 0.00in /  0mm
21:30 73.1 °F /  22.8 °C 65.1 °F /  18.4 °C 29.96in /  1014.4hPa SSW 6.0mph /  9.7km/h 6.0mph /  9.7km/h 76% 0.00in /  0mm
21:36 73.0 °F /  22.8 °C 65.4 °F /  18.6 °C 29.96in /  1014.4hPa SW 2.0mph /  3.2km/h 5.0mph /  8km/h 77% 0.00in /  0mm
21:41 72.9 °F /  22.7 °C 65.7 °F /  18.7 °C 29.97in /  1014.8hPa SW 3.0mph /  4.8km/h 4.0mph /  6.4km/h 78% 0.00in /  0mm
21:46 72.9 °F /  22.7 °C 65.3 °F /  18.5 °C 29.97in /  1014.8hPa SW 5.0mph /  8km/h 8.0mph /  12.9km/h 77% 0.00in /  0mm
21:51 72.9 °F /  22.7 °C 65.7 °F /  18.7 °C 29.97in /  1014.8hPa SW 3.0mph /  4.8km/h 7.0mph /  11.3km/h 78% 0.00in /  0mm
21:53 72.8 °F /  22.7 °C 65.6 °F /  18.7 °C 29.97in /  1014.8hPa SW 5.0mph /  8km/h 7.0mph /  11.3km/h 78% 0.00in /  0mm
21:56 72.8 °F /  22.7 °C 65.6 °F /  18.7 °C 29.97in /  1014.8hPa SW 2.0mph /  3.2km/h 6.0mph /  9.7km/h 78% 0.00in /  0mm
21:58 72.7 °F /  22.6 °C 65.4 °F /  18.6 °C 29.97in /  1014.8hPa SW 2.0mph /  3.2km/h 4.0mph /  6.4km/h 78% 0.00in /  0mm
22:04 72.4 °F /  22.4 °C 65.5 °F /  18.6 °C 29.96in /  1014.4hPa SW 1.0mph /  1.6km/h 2.0mph /  3.2km/h 79% 0.00in /  0mm
22:09 72.2 °F /  22.3 °C 65.3 °F /  18.5 °C 29.96in /  1014.4hPa South 1.0mph /  1.6km/h 1.0mph /  1.6km/h 79% 0.00in /  0mm
22:14 72.2 °F /  22.3 °C 65.7 °F /  18.7 °C 29.96in /  1014.4hPa SW 2.0mph /  3.2km/h 3.0mph /  4.8km/h 80% 0.00in /  0mm
22:19 72.0 °F /  22.2 °C 65.5 °F /  18.6 °C 29.95in /  1014.1hPa SSW 1.0mph /  1.6km/h 2.0mph /  3.2km/h 80% 0.00in /  0mm
22:24 71.9 °F /  22.2 °C 65.4 °F /  18.6 °C 29.95in /  1014.1hPa SE 1.0mph /  1.6km/h 2.0mph /  3.2km/h 80% 0.00in /  0mm
22:29 71.8 °F /  22.1 °C 65.3 °F /  18.5 °C 29.95in /  1014.1hPa SSE 2.0mph /  3.2km/h 3.0mph /  4.8km/h 80% 0.00in /  0mm
22:30 71.8 °F /  22.1 °C 65.3 °F /  18.5 °C 29.95in /  1014.1hPa SSE 1.0mph /  1.6km/h 3.0mph /  4.8km/h 80% 0.00in /  0mm
22:35 71.6 °F /  22 °C 65.5 °F /  18.6 °C 29.95in /  1014.1hPa SSE 2.0mph /  3.2km/h 2.0mph /  3.2km/h 81% 0.00in /  0mm
22:38 71.5 °F /  21.9 °C 65.4 °F /  18.6 °C 29.95in /  1014.1hPa SSE 3.0mph /  4.8km/h 3.0mph /  4.8km/h 81% 0.00in /  0mm
22:40 71.3 °F /  21.8 °C 65.5 °F /  18.6 °C 29.95in /  1014.1hPa SSE 2.0mph /  3.2km/h 3.0mph /  4.8km/h 82% 0.00in /  0mm
22:45 71.0 °F /  21.7 °C 65.2 °F /  18.4 °C 29.95in /  1014.1hPa SSE 2.0mph /  3.2km/h 2.0mph /  3.2km/h 82% 0.00in /  0mm
22:50 71.1 °F /  21.7 °C 65.3 °F /  18.5 °C 29.95in /  1014.1hPa South 1.0mph /  1.6km/h 4.0mph /  6.4km/h 82% 0.00in /  0mm
22:51 71.1 °F /  21.7 °C 65.3 °F /  18.5 °C 29.95in /  1014.1hPa SSE 2.0mph /  3.2km/h 4.0mph /  6.4km/h 82% 0.00in /  0mm
22:56 71.1 °F /  21.7 °C 65.3 °F /  18.5 °C 29.95in /  1014.1hPa Calm   2.0mph /  3.2km/h 82% 0.00in /  0mm
23:01 71.2 °F /  21.8 °C 65.4 °F /  18.6 °C 29.95in /  1014.1hPa SSE 2.0mph /  3.2km/h 4.0mph /  6.4km/h 82% 0.00in /  0mm
23:06 71.2 °F /  21.8 °C 65.4 °F /  18.6 °C 29.95in /  1014.1hPa SW 1.0mph /  1.6km/h 3.0mph /  4.8km/h 82% 0.00in /  0mm
23:11 71.1 °F /  21.7 °C 65.7 °F /  18.7 °C 29.95in /  1014.1hPa South 1.0mph /  1.6km/h 4.0mph /  6.4km/h 83% 0.00in /  0mm
23:12 71.1 °F /  21.7 °C 65.7 °F /  18.7 °C 29.95in /  1014.1hPa SSE 2.0mph /  3.2km/h 3.0mph /  4.8km/h 83% 0.00in /  0mm
23:17 71.1 °F /  21.7 °C 65.7 °F /  18.7 °C 29.95in /  1014.1hPa Calm   3.0mph /  4.8km/h 83% 0.00in /  0mm
23:22 71.0 °F /  21.7 °C 65.6 °F /  18.7 °C 29.94in /  1013.8hPa SSE 2.0mph /  3.2km/h 3.0mph /  4.8km/h 83% 0.00in /  0mm
23:27 70.9 °F /  21.6 °C 65.5 °F /  18.6 °C 29.94in /  1013.8hPa South 2.0mph /  3.2km/h 3.0mph /  4.8km/h 83% 0.00in /  0mm
23:29 70.8 °F /  21.6 °C 65.4 °F /  18.6 °C 29.94in /  1013.8hPa South 2.0mph /  3.2km/h 3.0mph /  4.8km/h 83% 0.00in /  0mm
23:32 70.7 °F /  21.5 °C 65.6 °F /  18.7 °C 29.95in /  1014.1hPa Calm   1.0mph /  1.6km/h 84% 0.00in /  0mm
23:34 70.7 °F /  21.5 °C 65.6 °F /  18.7 °C 29.95in /  1014.1hPa SW 2.0mph /  3.2km/h 3.0mph /  4.8km/h 84% 0.00in /  0mm
23:36 70.7 °F /  21.5 °C 65.6 °F /  18.7 °C 29.95in /  1014.1hPa West 3.0mph /  4.8km/h 3.0mph /  4.8km/h 84% 0.00in /  0mm
23:41 68.8 °F /  20.4 °C 63.4 °F /  17.4 °C 29.96in /  1014.4hPa West 9.0mph /  14.5km/h 14.0mph /  22.5km/h 83% 0.00in /  0mm
23:46 66.4 °F /  19.1 °C 62.4 °F /  16.9 °C 29.96in /  1014.4hPa NW 7.0mph /  11.3km/h 14.0mph /  22.5km/h 87% 0.00in /  0mm
23:51 64.9 °F /  18.3 °C 61.6 °F /  16.4 °C 29.97in /  1014.8hPa WNW 6.0mph /  9.7km/h 11.0mph /  17.7km/h 89% 0.00in /  0mm
23:52 64.8 °F /  18.2 °C 61.5 °F /  16.4 °C 29.97in /  1014.8hPa NW 6.0mph /  9.7km/h 11.0mph /  17.7km/h 89% 0.00in /  0mm
23:57 63.5 °F /  17.5 °C 60.8 °F /  16 °C 29.96in /  1014.4hPa NW 9.0mph /  14.5km/h 12.0mph /  19.3km/h 91% 0.00in /  0mm
Compliments of Weather Underground